Singapore Changi Airport

WSSS · 新加坡

罗盘
风向 的 新加坡樟宜机场 2C/20C
风: 2 kt, 1 beaufort

2 kt

1 kt
改变
0 5.000 10.000 15.000 20.000
FEW 1.600 ft
BKN 15.000 ft
METAR WSSS 082030Z VRB02KT 9999 FEW016 BKN150 25/23 Q1006 NOSIG

METAR 新加坡樟宜机场 - WSSS/SIN

新加坡樟宜机场是,新加坡中的大型机场。 该机场有3条跑道: 2C/20C, 2L/20R 和 2/20. 该领域的国际民航组织标志是WSSS 它的国际航空运输协会代码是SIN.

这份报告是针对2022年12月9日 04:30, 当地时间在新加坡樟宜机场进行的。

机场观察

可变方向的风很小或没有风。

可见度为10 km 或者更多。

有几云在1.600 ft的高度 和 碎云在15.000 ft的高度。 破损或更高的上限为15.000 ft。

温度和风寒是25 °C。 露点为23 °C,相对湿度为89%。 海平面上的气压为1006 hPa (QNH)。

白天

今天,太阳从06:54升起,在18:57降落。 这适用于新加坡樟宜机场,世界夏令时可能有所不同。 当地时间与世界标准时间之间的时差为+8 小时。 当前,没有夏令时有效。

公司介绍

在这个机场,你可以找到飞行学校。 本场上唯一已知的公司是Jacklyne Ong。

体会

到Vliegles.nl去找飞行课程,跳伞和其他飞行体验。 浏览页面,了解新加坡樟宜机场附近所有可用的活动。 你也可以使用搜索功能来寻找你所在地附近的特定飞行课程、跳伞或其他飞行体验。

跑道

Id 标题 侧风 逆风 侧风 %
2C/20C 023°-203° 2 kt 39 %
2L/20R 023°-203° 2 kt 39 %
2/20 023°-203° 2 kt 39 %

逆风成分最大的方向会被突出显示,并用于横风计算。 这并不一定意味着这个方向在使用。

乌云

1.600 ft FEW 几云
15.000 ft BKN 碎云

温度 & 天气

温度 25 °C
露点 23 °C
相对湿度 89%
Kp-index 3 (0-9)

白天

日出
06:54 (2:14)
中午
12:55
日落
18:57

小工具

你想在你的网站上有一个关于新加坡樟宜机场的当前航空天气(METAR)的小部件吗?

显示HTML代码

我们和第三方通过cookies跟踪您在我们网站上的互联网行为。如果你继续,我们认为你同意我们的饼干政策